createdAt,value
2018-08-31T00:02:14.101Z,3.77
2018-08-31T00:04:53.514Z,3.47
2018-08-31T00:07:34.162Z,4.67
2018-08-31T00:11:16.483Z,2.13
2018-08-31T00:13:44.754Z,5.93
2018-08-31T00:16:13.037Z,2.50
2018-08-31T00:18:41.318Z,3.37
2018-08-31T00:21:09.711Z,3.10
2018-08-31T00:25:50.134Z,2.80
2018-08-31T00:28:21.174Z,3.00
2018-08-31T00:31:00.582Z,2.20
2018-08-31T00:33:48.643Z,4.30
2018-08-31T00:38:28.029Z,3.70
2018-08-31T00:41:10.605Z,3.33
2018-08-31T00:43:50.122Z,2.50
2018-08-31T00:46:18.482Z,2.33
2018-08-31T00:48:46.782Z,2.47
2018-08-31T00:51:15.086Z,4.30
2018-08-31T00:53:43.378Z,4.20
2018-08-31T00:56:11.790Z,4.23
2018-08-31T00:58:40.055Z,2.37
2018-08-31T01:01:08.334Z,2.73
2018-08-31T01:03:36.613Z,2.80
2018-08-31T01:06:04.953Z,3.10
2018-08-31T01:08:33.262Z,2.75
2018-08-31T01:11:01.621Z,3.00
2018-08-31T01:13:29.962Z,2.63
2018-08-31T01:15:58.474Z,3.90
2018-08-31T01:18:26.779Z,3.17
2018-08-31T01:20:55.077Z,2.00
2018-08-31T01:23:23.389Z,2.73
2018-08-31T01:25:51.817Z,3.57
2018-08-31T01:28:20.086Z,4.80
2018-08-31T01:30:48.441Z,2.30
2018-08-31T01:33:16.766Z,4.20
2018-08-31T01:35:45.079Z,3.70
2018-08-31T01:38:13.365Z,2.90
2018-08-31T01:40:41.674Z,3.77
2018-08-31T01:43:10.018Z,3.23
2018-08-31T01:45:38.343Z,1.87
2018-08-31T01:48:06.733Z,2.63
2018-08-31T01:50:34.990Z,1.73
2018-08-31T01:53:03.362Z,2.60
2018-08-31T01:55:32.738Z,4.97
2018-08-31T01:58:01.953Z,3.97
2018-08-31T02:00:30.261Z,3.33
2018-08-31T02:02:58.600Z,3.10
2018-08-31T02:05:26.934Z,3.40
2018-08-31T02:07:55.226Z,3.00
2018-08-31T02:10:23.506Z,3.23
2018-08-31T02:12:51.814Z,1.80
2018-08-31T02:15:20.094Z,2.87
2018-08-31T02:17:48.434Z,3.40
2018-08-31T02:20:16.769Z,2.40
2018-08-31T02:22:45.070Z,5.53
2018-08-31T02:25:13.350Z,1.93
2018-08-31T02:27:41.653Z,3.03
2018-08-31T02:30:09.928Z,2.42
2018-08-31T02:32:38.309Z,3.23
2018-08-31T02:35:06.630Z,3.93
2018-08-31T02:37:35.481Z,3.67
2018-08-31T02:40:03.786Z,3.10
2018-08-31T02:42:32.134Z,2.23
2018-08-31T02:45:00.440Z,2.37
2018-08-31T02:47:28.759Z,3.57
2018-08-31T02:49:57.026Z,2.60
2018-08-31T02:52:25.375Z,3.50
2018-08-31T02:54:53.685Z,3.03
2018-08-31T02:57:22.018Z,3.13
2018-08-31T02:59:50.339Z,3.03
2018-08-31T03:02:18.729Z,2.93
2018-08-31T03:04:47.055Z,6.15
2018-08-31T03:07:15.378Z,2.73
2018-08-31T03:09:43.698Z,2.60
2018-08-31T03:12:12.070Z,3.10
2018-08-31T03:14:40.367Z,2.77
2018-08-31T03:17:08.766Z,3.43
2018-08-31T03:19:37.102Z,2.60
2018-08-31T03:22:05.425Z,2.37
2018-08-31T03:24:33.761Z,2.50
2018-08-31T03:27:02.119Z,2.17
2018-08-31T03:29:30.530Z,2.53
2018-08-31T03:31:58.883Z,2.20
2018-08-31T03:34:27.282Z,2.15
2018-08-31T03:36:55.630Z,4.03
2018-08-31T03:39:24.067Z,2.97
2018-08-31T03:41:52.386Z,3.07
2018-08-31T03:44:20.700Z,2.07
2018-08-31T03:46:49.057Z,3.53
2018-08-31T03:49:17.622Z,2.47
2018-08-31T03:51:46.039Z,2.93
2018-08-31T03:54:14.488Z,3.67
2018-08-31T03:56:42.798Z,3.27
2018-08-31T03:59:11.469Z,2.93
2018-08-31T04:01:39.819Z,2.43
2018-08-31T04:04:08.134Z,5.03
2018-08-31T04:06:36.455Z,3.00
2018-08-31T04:09:06.300Z,6.73
2018-08-31T04:11:34.702Z,4.10
2018-08-31T04:14:03.070Z,2.43
2018-08-31T04:16:31.426Z,4.27
2018-08-31T04:19:04.242Z,2.17
2018-08-31T04:21:32.714Z,3.20
2018-08-31T04:24:01.038Z,1.77
2018-08-31T04:26:29.328Z,2.93
2018-08-31T04:28:57.647Z,2.87
2018-08-31T04:31:26.006Z,7.07
2018-08-31T04:33:54.348Z,3.25
2018-08-31T04:36:22.714Z,12.13
2018-08-31T04:38:51.047Z,6.93
2018-08-31T04:41:19.486Z,7.33
2018-08-31T04:43:47.836Z,4.80
2018-08-31T04:46:16.151Z,4.70
2018-08-31T04:48:44.960Z,4.80
2018-08-31T04:51:13.267Z,7.90
2018-08-31T04:53:41.588Z,7.93
2018-08-31T04:56:09.901Z,7.70
2018-08-31T04:58:38.246Z,2.90
2018-08-31T05:01:06.554Z,8.63
2018-08-31T05:03:34.928Z,6.37
2018-08-31T05:06:03.310Z,5.07
2018-08-31T05:08:31.622Z,6.33
2018-08-31T05:10:59.964Z,6.97
2018-08-31T05:13:28.333Z,5.90
2018-08-31T05:15:56.737Z,7.43
2018-08-31T05:18:25.059Z,6.03
2018-08-31T05:20:53.374Z,4.78
2018-08-31T05:23:21.690Z,5.87
2018-08-31T05:25:49.974Z,11.20
2018-08-31T05:28:18.370Z,7.17
2018-08-31T05:35:45.989Z,5.20
2018-08-31T05:38:14.343Z,4.13
2018-08-31T05:40:42.679Z,5.00
2018-08-31T05:43:11.066Z,5.53
2018-08-31T05:45:39.390Z,6.40
2018-08-31T05:48:07.750Z,10.03
2018-08-31T05:50:36.051Z,10.63
2018-08-31T05:53:04.373Z,12.43
2018-08-31T05:55:32.670Z,4.83
2018-08-31T05:58:01.192Z,7.33
2018-08-31T06:00:29.698Z,8.77
2018-08-31T06:02:58.064Z,12.23
2018-08-31T06:05:26.571Z,13.97
2018-08-31T06:07:54.922Z,11.33
2018-08-31T06:10:23.378Z,6.20
2018-08-31T06:12:51.722Z,14.17
2018-08-31T06:15:20.811Z,10.00
2018-08-31T06:17:49.111Z,8.60
2018-08-31T06:20:17.454Z,10.83
2018-08-31T06:22:45.786Z,11.27
2018-08-31T06:25:14.142Z,9.53
2018-08-31T06:27:42.715Z,12.30
2018-08-31T06:30:11.053Z,12.77
2018-08-31T06:32:39.405Z,13.18
2018-08-31T06:35:07.826Z,17.13
2018-08-31T06:37:36.155Z,12.70
2018-08-31T06:40:04.720Z,10.73
2018-08-31T06:42:33.044Z,14.73
2018-08-31T06:45:01.378Z,10.23
2018-08-31T06:47:29.740Z,11.37
2018-08-31T06:49:58.134Z,10.17
2018-08-31T06:52:26.458Z,8.57
2018-08-31T06:54:54.838Z,8.23
2018-08-31T06:57:23.470Z,8.70
2018-08-31T06:59:51.850Z,9.53
2018-08-31T07:02:20.174Z,10.53
2018-08-31T07:04:48.490Z,7.40
2018-08-31T07:07:16.854Z,16.57
2018-08-31T07:09:45.209Z,15.43
2018-08-31T07:12:13.582Z,11.63
2018-08-31T07:14:41.894Z,9.00
2018-08-31T07:17:10.228Z,11.37
2018-08-31T07:19:38.554Z,10.97
2018-08-31T07:22:06.949Z,8.83
2018-08-31T07:24:35.289Z,7.60
2018-08-31T07:27:03.622Z,7.70
2018-08-31T07:29:31.935Z,7.70
2018-08-31T07:32:00.267Z,10.60
2018-08-31T07:34:28.601Z,9.73
2018-08-31T07:36:56.948Z,9.50
2018-08-31T07:39:25.290Z,6.50
2018-08-31T07:41:53.607Z,6.50
2018-08-31T07:44:21.951Z,6.10
2018-08-31T07:46:50.299Z,7.53
2018-08-31T07:49:18.622Z,9.07
2018-08-31T07:51:46.970Z,8.37
2018-08-31T07:54:15.308Z,3.87
2018-08-31T07:56:43.702Z,5.27
2018-08-31T07:59:12.010Z,7.07
2018-08-31T08:01:40.349Z,6.60
2018-08-31T08:04:08.681Z,8.57
2018-08-31T08:06:37.071Z,11.90
2018-08-31T08:09:07.495Z,5.13
2018-08-31T08:11:35.813Z,4.23
2018-08-31T08:14:04.153Z,9.07
2018-08-31T08:16:32.555Z,6.10
2018-08-31T08:19:00.954Z,10.23
2018-08-31T08:21:30.082Z,5.53
2018-08-31T08:23:58.438Z,5.33
2018-08-31T08:26:26.783Z,5.37
2018-08-31T08:28:55.164Z,6.03
2018-08-31T08:31:23.534Z,5.17
2018-08-31T08:33:51.898Z,7.57
2018-08-31T08:36:20.415Z,7.93
2018-08-31T08:38:48.845Z,5.90
2018-08-31T08:41:17.242Z,7.50
2018-08-31T08:43:45.715Z,4.80
2018-08-31T08:46:14.063Z,4.43
2018-08-31T08:48:42.639Z,4.23
2018-08-31T08:51:10.792Z,5.40
2018-08-31T08:53:39.127Z,7.40
2018-08-31T08:56:07.765Z,4.37
2018-08-31T08:58:36.104Z,7.00
2018-08-31T09:01:04.507Z,3.27
2018-08-31T09:03:32.834Z,4.93
2018-08-31T09:06:01.138Z,6.33
2018-08-31T09:08:29.426Z,2.60
2018-08-31T09:10:57.819Z,7.20
2018-08-31T09:13:26.154Z,4.20
2018-08-31T09:15:54.463Z,4.20
2018-08-31T09:18:27.799Z,3.63
2018-08-31T09:20:56.870Z,4.67
2018-08-31T09:23:25.696Z,6.43
2018-08-31T09:25:54.791Z,7.17
2018-08-31T09:28:23.087Z,2.30
2018-08-31T09:30:51.431Z,6.00
2018-08-31T09:33:19.759Z,7.30
2018-08-31T09:35:48.079Z,14.67
2018-08-31T09:38:16.396Z,12.17
2018-08-31T09:40:44.806Z,12.40
2018-08-31T09:43:13.170Z,12.97
2018-08-31T09:45:41.491Z,10.17
2018-08-31T09:48:09.829Z,8.63
2018-08-31T09:50:38.280Z,10.13
2018-08-31T09:53:06.682Z,9.37
2018-08-31T09:55:34.983Z,11.07
2018-08-31T09:58:03.338Z,13.30
2018-08-31T10:01:35.677Z,9.20
2018-08-31T10:04:04.274Z,12.00
2018-08-31T10:06:33.838Z,7.43
2018-08-31T10:09:02.176Z,7.67
2018-08-31T10:11:30.544Z,8.10
2018-08-31T10:13:58.882Z,8.47
2018-08-31T10:16:27.267Z,6.30
2018-08-31T10:18:55.562Z,6.07
2018-08-31T10:21:23.866Z,7.57
2018-08-31T10:23:52.162Z,6.43
2018-08-31T10:26:20.516Z,8.65
2018-08-31T10:28:48.926Z,7.37
2018-08-31T10:31:17.271Z,5.57
2018-08-31T10:33:45.617Z,4.72
2018-08-31T10:36:14.071Z,4.40
2018-08-31T10:38:42.443Z,3.90
2018-08-31T10:41:10.780Z,4.95
2018-08-31T10:43:39.205Z,6.83
2018-08-31T10:46:07.606Z,10.97
2018-08-31T10:48:35.928Z,4.30
2018-08-31T10:51:04.244Z,13.07
2018-08-31T10:53:32.606Z,6.63
2018-08-31T10:56:00.971Z,8.07
2018-08-31T10:58:29.359Z,4.57
2018-08-31T11:00:57.727Z,10.90
2018-08-31T11:03:26.110Z,8.95
2018-08-31T11:05:54.440Z,4.87
2018-08-31T11:08:22.791Z,7.13
2018-08-31T11:10:51.126Z,4.37
2018-08-31T11:13:19.457Z,4.20
2018-08-31T11:15:47.816Z,4.50
2018-08-31T11:18:16.171Z,4.80
2018-08-31T11:20:44.495Z,5.17
2018-08-31T11:23:12.840Z,7.03
2018-08-31T11:25:41.226Z,6.33
2018-08-31T11:28:09.590Z,17.20
2018-08-31T11:30:37.956Z,6.40
2018-08-31T11:33:06.384Z,4.30
2018-08-31T11:35:34.707Z,5.53
2018-08-31T11:38:03.117Z,4.67
2018-08-31T11:40:31.496Z,3.23
2018-08-31T11:43:00.011Z,3.00
2018-08-31T11:45:28.358Z,8.07
2018-08-31T11:47:56.743Z,252.70
2018-08-31T11:50:25.098Z,188.57
2018-08-31T11:52:53.463Z,325.70
2018-08-31T11:55:21.884Z,299.02
2018-08-31T11:57:50.316Z,147.53
2018-08-31T12:00:18.766Z,161.57
2018-08-31T12:02:47.355Z,223.90
2018-08-31T12:05:15.749Z,143.23
2018-08-31T12:07:44.118Z,236.53
2018-08-31T12:10:12.448Z,203.07
2018-08-31T12:12:40.942Z,183.90
2018-08-31T12:15:09.458Z,172.40
2018-08-31T12:17:37.809Z,164.53
2018-08-31T12:20:06.551Z,183.87
2018-08-31T12:22:34.930Z,183.83
2018-08-31T12:25:03.367Z,175.42
2018-08-31T12:27:31.721Z,180.50
2018-08-31T12:30:00.052Z,185.07
2018-08-31T12:32:28.469Z,169.43
2018-08-31T12:34:56.828Z,158.97
2018-08-31T12:37:25.202Z,142.40
2018-08-31T12:39:53.543Z,152.63
2018-08-31T12:42:21.958Z,142.10
2018-08-31T12:44:50.462Z,131.17
2018-08-31T12:47:18.826Z,132.57
2018-08-31T12:49:47.178Z,143.63
2018-08-31T12:52:15.531Z,124.83
2018-08-31T12:54:43.910Z,112.20
2018-08-31T12:57:12.415Z,143.63
2018-08-31T12:59:44.955Z,111.67
2018-08-31T13:02:13.312Z,104.47
2018-08-31T13:04:41.692Z,110.30
2018-08-31T13:07:10.030Z,102.90
2018-08-31T13:09:38.409Z,101.97
2018-08-31T13:12:06.791Z,104.30
2018-08-31T13:14:35.162Z,106.00
2018-08-31T13:17:03.521Z,98.40
2018-08-31T13:19:31.870Z,86.90
2018-08-31T13:22:00.210Z,96.93
2018-08-31T13:24:28.594Z,100.57
2018-08-31T13:26:57.007Z,84.77
2018-08-31T13:29:25.519Z,89.00
2018-08-31T13:31:53.862Z,87.17
2018-08-31T13:34:22.696Z,83.37
2018-08-31T13:36:51.110Z,83.60
2018-08-31T13:39:19.473Z,86.70
2018-08-31T13:41:48.099Z,73.70
2018-08-31T13:44:16.472Z,76.80
2018-08-31T13:46:44.813Z,70.10
2018-08-31T13:49:13.219Z,74.73
2018-08-31T13:51:41.659Z,65.67
2018-08-31T13:54:10.043Z,63.23
2018-08-31T13:56:38.482Z,101.30
2018-08-31T13:59:06.956Z,370.27
2018-08-31T14:01:35.323Z,123.80
2018-08-31T14:04:03.693Z,199.33
2018-08-31T14:06:32.015Z,285.20
2018-08-31T14:09:00.450Z,257.77
2018-08-31T14:11:28.847Z,267.37
2018-08-31T14:13:57.220Z,260.07
2018-08-31T14:16:26.566Z,250.13
2018-08-31T14:18:55.007Z,243.07
2018-08-31T14:21:23.343Z,199.13
2018-08-31T14:23:51.758Z,162.57
2018-08-31T14:26:20.107Z,131.07
2018-08-31T14:28:48.486Z,172.03
2018-08-31T14:31:16.829Z,151.67
2018-08-31T14:33:45.166Z,130.23
2018-08-31T14:36:13.502Z,114.53
2018-08-31T14:38:41.955Z,125.50
2018-08-31T14:41:10.278Z,118.50
2018-08-31T14:43:38.655Z,102.63
2018-08-31T14:46:07.094Z,105.63
2018-08-31T14:48:35.444Z,88.53
2018-08-31T14:51:03.766Z,77.73
2018-08-31T14:53:32.123Z,86.40
2018-08-31T14:56:00.430Z,80.17
2018-08-31T14:58:29.777Z,75.00
2018-08-31T15:00:58.143Z,75.27
2018-08-31T15:03:26.451Z,80.10
2018-08-31T15:05:54.890Z,88.30
2018-08-31T15:08:23.166Z,82.60
2018-08-31T15:10:51.498Z,84.03
2018-08-31T15:13:19.829Z,84.53
2018-08-31T15:15:48.235Z,94.67
2018-08-31T15:18:16.574Z,89.03
2018-08-31T15:20:44.926Z,85.10
2018-08-31T15:23:13.322Z,92.62
2018-08-31T15:25:41.752Z,89.17
2018-08-31T15:28:10.074Z,93.13
2018-08-31T15:30:38.394Z,86.60
2018-08-31T15:33:06.734Z,88.17
2018-08-31T15:35:35.194Z,71.97
2018-08-31T15:38:03.578Z,83.43
2018-08-31T15:40:33.001Z,82.03
2018-08-31T15:43:01.338Z,83.23
2018-08-31T15:45:29.671Z,78.93
2018-08-31T15:47:58.018Z,77.63
2018-08-31T15:50:26.382Z,69.93
2018-08-31T15:52:54.750Z,86.80
2018-08-31T15:55:23.078Z,72.00
2018-08-31T15:57:51.394Z,78.83
2018-08-31T16:00:19.741Z,73.47
2018-08-31T16:02:48.028Z,78.97
2018-08-31T16:05:16.403Z,76.63
2018-08-31T16:07:44.729Z,74.97
2018-08-31T16:10:13.102Z,67.17
2018-08-31T16:12:41.403Z,76.50
2018-08-31T16:15:09.729Z,61.30
2018-08-31T16:17:38.051Z,71.37
2018-08-31T16:20:06.464Z,66.53
2018-08-31T16:22:35.666Z,77.97
2018-08-31T16:25:04.226Z,77.90
2018-08-31T16:27:32.686Z,71.33
2018-08-31T16:30:01.026Z,71.87
2018-08-31T16:32:29.330Z,63.53
2018-08-31T16:34:57.674Z,76.23
2018-08-31T16:37:25.995Z,71.43
2018-08-31T16:39:54.324Z,64.87
2018-08-31T16:42:22.670Z,61.50
2018-08-31T16:44:51.005Z,56.80
2018-08-31T16:47:19.335Z,46.60
2018-08-31T16:49:47.694Z,45.67
2018-08-31T16:52:16.010Z,42.77
2018-08-31T16:54:44.386Z,48.55
2018-08-31T16:57:12.703Z,37.73
2018-08-31T16:59:41.071Z,40.90
2018-08-31T17:02:09.498Z,37.13
2018-08-31T17:04:38.262Z,37.47
2018-08-31T17:07:06.630Z,38.33
2018-08-31T17:09:34.927Z,29.70
2018-08-31T17:12:03.278Z,28.43
2018-08-31T17:14:31.598Z,29.60
2018-08-31T17:16:59.991Z,28.47
2018-08-31T17:19:28.314Z,25.20
2018-08-31T17:21:56.664Z,26.03
2018-08-31T17:24:24.982Z,28.40
2018-08-31T17:26:58.558Z,29.70
2018-08-31T17:29:47.927Z,29.80
2018-08-31T17:32:21.664Z,26.73
2018-08-31T17:34:55.213Z,26.23
2018-08-31T17:37:28.951Z,28.30
2018-08-31T17:39:57.623Z,33.73
2018-08-31T17:42:27.410Z,26.10
2018-08-31T17:44:55.854Z,25.43
2018-08-31T17:47:24.198Z,26.30
2018-08-31T17:49:52.524Z,25.33
2018-08-31T17:52:21.047Z,26.87
2018-08-31T17:54:49.399Z,30.17
2018-08-31T17:57:17.743Z,24.07
2018-08-31T17:59:46.223Z,26.60
2018-08-31T18:02:14.683Z,31.77
2018-08-31T18:04:43.006Z,23.30
2018-08-31T18:07:11.474Z,23.10
2018-08-31T18:09:39.844Z,25.20
2018-08-31T18:12:08.197Z,25.90
2018-08-31T18:14:36.619Z,26.10
2018-08-31T18:17:05.227Z,23.87
2018-08-31T18:19:33.600Z,22.20
2018-08-31T18:22:01.983Z,22.07
2018-08-31T18:24:30.304Z,24.40
2018-08-31T18:26:58.638Z,22.03
2018-08-31T18:29:26.963Z,16.48
2018-08-31T18:31:55.335Z,21.20
2018-08-31T18:34:23.787Z,18.80
2018-08-31T18:36:52.166Z,22.70
2018-08-31T18:39:20.591Z,25.25
2018-08-31T18:41:48.937Z,25.53
2018-08-31T18:44:17.274Z,22.30
2018-08-31T18:46:45.670Z,21.53
2018-08-31T18:49:14.019Z,23.40
2018-08-31T18:51:42.394Z,25.33
2018-08-31T18:54:10.739Z,27.10
2018-08-31T18:56:39.106Z,23.80
2018-08-31T18:59:07.494Z,23.53
2018-08-31T19:01:35.801Z,20.33
2018-08-31T19:04:04.125Z,16.63
2018-08-31T19:06:32.720Z,23.93
2018-08-31T19:09:01.058Z,19.20
2018-08-31T19:11:29.417Z,27.03
2018-08-31T19:13:57.814Z,17.98
2018-08-31T19:16:26.170Z,25.73
2018-08-31T19:18:54.494Z,15.27
2018-08-31T19:21:23.578Z,17.17
2018-08-31T19:23:51.977Z,21.83
2018-08-31T19:26:20.388Z,18.27
2018-08-31T19:28:48.809Z,20.53
2018-08-31T19:31:17.274Z,22.57
2018-08-31T19:33:46.331Z,18.43
2018-08-31T19:36:14.642Z,14.83
2018-08-31T19:38:42.983Z,19.43
2018-08-31T19:41:11.377Z,17.60
2018-08-31T19:43:39.718Z,25.00
2018-08-31T19:46:08.199Z,16.80
2018-08-31T19:48:36.634Z,18.23
2018-08-31T19:51:05.039Z,15.60
2018-08-31T19:53:33.411Z,12.53
2018-08-31T19:56:01.737Z,17.53
2018-08-31T19:58:30.159Z,13.57
2018-08-31T20:00:58.526Z,15.33
2018-08-31T20:03:26.858Z,16.83
2018-08-31T20:05:55.198Z,12.90
2018-08-31T20:08:23.550Z,14.07
2018-08-31T20:10:51.938Z,15.13
2018-08-31T20:13:20.315Z,14.23
2018-08-31T20:15:48.992Z,11.53
2018-08-31T20:18:17.341Z,17.30
2018-08-31T20:20:45.670Z,11.33
2018-08-31T20:23:14.021Z,16.20
2018-08-31T20:25:42.441Z,12.10
2018-08-31T20:28:10.867Z,17.13
2018-08-31T20:30:39.182Z,12.53
2018-08-31T20:33:07.536Z,14.13
2018-08-31T20:35:35.968Z,13.50
2018-08-31T20:38:04.362Z,15.10
2018-08-31T20:40:32.758Z,12.50
2018-08-31T20:43:01.164Z,16.33
2018-08-31T20:45:29.451Z,9.60
2018-08-31T20:47:57.810Z,12.40
2018-08-31T20:50:26.174Z,11.13
2018-08-31T20:52:54.622Z,13.77
2018-08-31T20:55:22.949Z,13.50
2018-08-31T20:57:51.323Z,9.23
2018-08-31T21:00:19.665Z,14.10
2018-08-31T21:02:48.115Z,12.83
2018-08-31T21:05:16.459Z,10.70
2018-08-31T21:07:44.818Z,8.70
2018-08-31T21:10:13.159Z,14.63
2018-08-31T21:12:41.606Z,8.73
2018-08-31T21:15:09.947Z,11.53
2018-08-31T21:17:38.325Z,11.17
2018-08-31T21:20:06.715Z,10.48
2018-08-31T21:22:35.067Z,10.30
2018-08-31T21:25:03.371Z,9.50
2018-08-31T21:27:31.715Z,10.80
2018-08-31T21:30:00.060Z,8.97
2018-08-31T21:32:28.464Z,11.87
2018-08-31T21:34:56.881Z,8.67
2018-08-31T21:37:25.232Z,10.40
2018-08-31T21:39:54.158Z,9.10
2018-08-31T21:42:22.518Z,10.07
2018-08-31T21:44:50.834Z,8.63
2018-08-31T21:47:19.162Z,9.83
2018-08-31T21:49:47.539Z,7.62
2018-08-31T21:52:15.876Z,7.83
2018-08-31T21:54:44.253Z,6.23
2018-08-31T21:57:12.619Z,7.10
2018-08-31T21:59:40.986Z,6.35
2018-08-31T22:02:09.415Z,5.57
2018-08-31T22:04:37.742Z,5.80
2018-08-31T22:07:06.090Z,8.70
2018-08-31T22:09:34.446Z,7.37
2018-08-31T22:12:02.803Z,12.10
2018-08-31T22:14:31.210Z,6.27
2018-08-31T22:16:59.537Z,7.10
2018-08-31T22:19:27.938Z,8.83
2018-08-31T22:21:56.258Z,4.23
2018-08-31T22:24:24.626Z,6.50
2018-08-31T22:26:52.918Z,5.10
2018-08-31T22:29:21.251Z,5.90
2018-08-31T22:31:49.597Z,7.27
2018-08-31T22:34:18.005Z,4.67
2018-08-31T22:36:46.287Z,8.50
2018-08-31T22:39:14.634Z,8.40
2018-08-31T22:41:42.945Z,4.20
2018-08-31T22:44:11.308Z,10.77
2018-08-31T22:46:39.626Z,5.40
2018-08-31T22:49:08.038Z,4.47
2018-08-31T22:51:36.402Z,7.33
2018-08-31T22:54:04.761Z,4.30
2018-08-31T22:56:33.106Z,4.93
2018-08-31T22:59:01.447Z,3.87
2018-08-31T23:01:29.766Z,6.40
2018-08-31T23:03:58.872Z,5.23
2018-08-31T23:06:27.178Z,6.40
2018-08-31T23:08:55.482Z,6.43
2018-08-31T23:11:23.811Z,4.13
2018-08-31T23:13:59.895Z,4.70
2018-08-31T23:16:28.158Z,5.13
2018-08-31T23:18:56.483Z,4.43
2018-08-31T23:21:24.782Z,6.13
2018-08-31T23:23:53.091Z,3.10
2018-08-31T23:26:21.365Z,5.80
2018-08-31T23:28:49.662Z,3.70
2018-08-31T23:31:18.047Z,3.57
2018-08-31T23:33:46.354Z,4.37
2018-08-31T23:36:14.664Z,3.70
2018-08-31T23:38:43.006Z,4.05
2018-08-31T23:41:11.302Z,4.67
2018-08-31T23:43:39.609Z,4.37
2018-08-31T23:46:08.030Z,4.23
2018-08-31T23:48:36.359Z,5.20
2018-08-31T23:51:04.722Z,3.30
2018-08-31T23:53:33.051Z,2.53
2018-08-31T23:56:01.834Z,2.57
2018-08-31T23:58:30.166Z,4.13
